createdAt,value
2019-05-30T00:00:06.814Z,16.00
2019-05-30T00:02:24.007Z,16.10
2019-05-30T00:04:54.016Z,16.10
2019-05-30T00:07:23.246Z,16.10
2019-05-30T00:10:01.144Z,16.00
2019-05-30T00:12:29.966Z,15.70
2019-05-30T00:14:58.753Z,15.70
2019-05-30T00:17:27.545Z,15.70
2019-05-30T00:19:56.701Z,15.60
2019-05-30T00:22:25.602Z,15.60
2019-05-30T00:24:55.905Z,15.60
2019-05-30T00:27:24.938Z,15.40
2019-05-30T00:29:53.725Z,15.40
2019-05-30T00:32:23.009Z,15.40
2019-05-30T00:34:52.103Z,15.40
2019-05-30T00:37:20.888Z,15.40
2019-05-30T00:39:49.745Z,15.50
2019-05-30T00:42:18.619Z,15.40
2019-05-30T00:44:47.465Z,15.30
2019-05-30T00:47:16.644Z,15.30
2019-05-30T00:49:45.418Z,15.20
2019-05-30T00:52:14.764Z,15.10
2019-05-30T00:54:43.708Z,15.10
2019-05-30T00:57:12.809Z,15.00
2019-05-30T00:59:41.842Z,15.00
2019-05-30T01:02:10.635Z,15.00
2019-05-30T01:04:39.415Z,14.90
2019-05-30T01:07:08.427Z,14.80
2019-05-30T01:09:37.460Z,14.60
2019-05-30T01:12:07.435Z,14.60
2019-05-30T01:14:36.638Z,14.60
2019-05-30T01:17:05.817Z,14.60
2019-05-30T01:19:34.601Z,14.60
2019-05-30T01:22:03.507Z,14.50
2019-05-30T01:24:32.877Z,14.40
2019-05-30T01:27:01.661Z,14.30
2019-05-30T01:29:30.450Z,14.40
2019-05-30T01:32:02.138Z,14.40
2019-05-30T01:34:31.174Z,14.40
2019-05-30T01:36:59.959Z,14.40
2019-05-30T01:39:28.752Z,14.40
2019-05-30T01:41:57.720Z,14.50
2019-05-30T01:44:26.905Z,14.50
2019-05-30T01:46:55.677Z,14.40
2019-05-30T01:49:24.482Z,14.40
2019-05-30T01:51:53.737Z,14.50
2019-05-30T01:54:22.525Z,14.60
2019-05-30T01:56:51.533Z,14.50
2019-05-30T01:59:20.348Z,14.40
2019-05-30T02:01:49.100Z,14.50
2019-05-30T02:04:17.848Z,14.40
2019-05-30T02:06:46.593Z,14.30
2019-05-30T02:09:15.362Z,14.20
2019-05-30T02:11:44.178Z,14.30
2019-05-30T02:14:12.923Z,14.40
2019-05-30T02:16:41.679Z,14.50
2019-05-30T02:19:10.771Z,14.50
2019-05-30T02:21:39.866Z,14.40
2019-05-30T02:24:08.717Z,14.50
2019-05-30T02:26:37.460Z,14.40
2019-05-30T02:29:06.294Z,14.30
2019-05-30T02:31:39.141Z,14.20
2019-05-30T02:34:07.362Z,14.10
2019-05-30T02:36:36.544Z,14.20
2019-05-30T02:39:07.954Z,14.30
2019-05-30T02:41:37.991Z,14.30
2019-05-30T02:44:07.725Z,14.30
2019-05-30T02:46:37.607Z,14.20
2019-05-30T02:49:07.230Z,14.10
2019-05-30T02:51:37.048Z,14.00
2019-05-30T02:54:06.971Z,14.00
2019-05-30T02:56:36.289Z,13.90
2019-05-30T02:59:06.247Z,14.00
2019-05-30T03:01:35.908Z,13.90
2019-05-30T03:04:06.224Z,13.80
2019-05-30T03:06:35.593Z,13.80
2019-05-30T03:09:06.159Z,13.70
2019-05-30T03:11:36.332Z,13.80
2019-05-30T03:14:08.869Z,13.80
2019-05-30T03:16:37.640Z,13.60
2019-05-30T03:19:08.330Z,13.80
2019-05-30T03:21:37.385Z,13.70
2019-05-30T03:24:07.643Z,13.80
2019-05-30T03:26:37.060Z,13.80
2019-05-30T03:29:07.801Z,13.70
2019-05-30T03:31:49.566Z,13.70
2019-05-30T03:34:27.867Z,13.60
2019-05-30T03:36:49.148Z,13.60
2019-05-30T03:39:18.089Z,13.60
2019-05-30T03:41:46.921Z,13.60
2019-05-30T03:44:16.059Z,13.60
2019-05-30T03:46:49.615Z,13.50
2019-05-30T03:49:22.593Z,13.50
2019-05-30T03:51:52.088Z,13.50
2019-05-30T03:54:22.330Z,13.50
2019-05-30T03:56:57.143Z,13.50
2019-05-30T03:59:30.499Z,13.50
2019-05-30T04:02:09.053Z,13.50
2019-05-30T04:04:41.849Z,13.50
2019-05-30T04:07:15.860Z,13.50
2019-05-30T04:09:46.962Z,13.40
2019-05-30T04:12:27.669Z,13.50
2019-05-30T04:15:00.868Z,13.50
2019-05-30T04:17:29.601Z,13.40
2019-05-30T04:19:58.357Z,13.50
2019-05-30T04:22:27.109Z,13.50
2019-05-30T04:24:55.857Z,13.50
2019-05-30T04:27:24.602Z,13.40
2019-05-30T04:29:53.336Z,13.40
2019-05-30T04:32:22.660Z,13.50
2019-05-30T04:34:51.444Z,13.50
2019-05-30T04:37:20.442Z,13.60
2019-05-30T04:39:56.345Z,13.60
2019-05-30T04:42:25.083Z,13.60
2019-05-30T04:44:53.837Z,13.60
2019-05-30T04:47:22.589Z,13.60
2019-05-30T04:49:51.337Z,13.60
2019-05-30T04:52:24.456Z,13.70
2019-05-30T04:54:51.030Z,13.70
2019-05-30T04:57:25.771Z,13.70
2019-05-30T04:59:50.241Z,13.70
2019-05-30T05:02:21.145Z,13.80
2019-05-30T05:04:49.697Z,13.90
2019-05-30T05:07:19.871Z,14.00
2019-05-30T05:09:48.984Z,14.00
2019-05-30T05:12:18.227Z,14.10
2019-05-30T05:14:47.163Z,14.10
2019-05-30T05:17:16.933Z,14.30
2019-05-30T05:19:46.136Z,14.50
2019-05-30T05:22:14.908Z,14.50
2019-05-30T05:24:44.117Z,14.50
2019-05-30T05:27:13.563Z,14.70
2019-05-30T05:29:42.429Z,14.60
2019-05-30T05:32:11.262Z,14.60
2019-05-30T05:34:40.256Z,14.50
2019-05-30T05:37:09.017Z,14.40
2019-05-30T05:39:38.000Z,14.30
2019-05-30T05:42:06.748Z,14.40
2019-05-30T05:44:35.508Z,14.40
2019-05-30T05:47:04.332Z,14.40
2019-05-30T05:49:33.103Z,14.40
2019-05-30T05:52:02.320Z,14.40
2019-05-30T05:54:31.420Z,14.50
2019-05-30T05:57:00.464Z,14.50
2019-05-30T05:59:30.514Z,14.50
2019-05-30T06:01:59.248Z,14.40
2019-05-30T06:04:28.004Z,14.40
2019-05-30T06:06:56.989Z,14.40
2019-05-30T06:09:26.005Z,14.40
2019-05-30T06:11:54.743Z,14.40
2019-05-30T06:14:24.229Z,14.50
2019-05-30T06:16:55.705Z,14.50
2019-05-30T06:19:23.745Z,14.50
2019-05-30T06:21:54.284Z,14.60
2019-05-30T06:24:23.648Z,14.70
2019-05-30T06:26:52.736Z,14.60
2019-05-30T06:29:22.139Z,14.70
2019-05-30T06:31:51.299Z,14.70
2019-05-30T06:34:30.312Z,14.80
2019-05-30T06:36:50.704Z,14.90
2019-05-30T06:39:19.693Z,14.90
2019-05-30T06:41:48.442Z,15.00
2019-05-30T06:44:17.200Z,15.10
2019-05-30T06:46:46.040Z,15.10
2019-05-30T06:49:14.789Z,15.20
2019-05-30T06:51:43.782Z,15.10
2019-05-30T06:54:12.535Z,15.20
2019-05-30T06:56:44.588Z,15.30
2019-05-30T06:59:12.097Z,15.40
2019-05-30T07:01:41.120Z,15.40
2019-05-30T07:04:10.297Z,15.40
2019-05-30T07:06:39.665Z,15.40
2019-05-30T07:09:09.161Z,15.40
2019-05-30T07:11:37.996Z,15.50
2019-05-30T07:14:06.880Z,15.60
2019-05-30T07:16:36.040Z,15.60
2019-05-30T07:19:05.340Z,15.70
2019-05-30T07:21:34.184Z,15.80
2019-05-30T07:24:03.238Z,15.80
2019-05-30T07:26:32.020Z,15.90
2019-05-30T07:29:00.964Z,16.00
2019-05-30T07:31:30.244Z,16.00
2019-05-30T07:33:59.087Z,16.00
2019-05-30T07:36:28.201Z,16.10
2019-05-30T07:38:57.790Z,16.20
2019-05-30T07:41:27.095Z,16.30
2019-05-30T07:43:56.320Z,16.40
2019-05-30T07:46:25.265Z,16.50
2019-05-30T07:49:10.672Z,16.70
2019-05-30T07:51:39.454Z,17.00
2019-05-30T07:54:08.318Z,17.30
2019-05-30T07:56:38.017Z,17.60
2019-05-30T07:59:07.708Z,17.90
2019-05-30T08:01:36.559Z,18.20
2019-05-30T08:04:21.228Z,18.60
2019-05-30T08:06:50.844Z,18.80
2019-05-30T08:09:20.194Z,19.00
2019-05-30T08:11:49.185Z,19.10
2019-05-30T08:14:18.507Z,19.20
2019-05-30T08:16:47.370Z,19.20
2019-05-30T08:19:16.817Z,19.20
2019-05-30T08:22:12.362Z,19.30
2019-05-30T08:24:54.020Z,19.30
2019-05-30T08:27:57.729Z,19.30
2019-05-30T08:30:28.538Z,19.20
2019-05-30T08:32:57.484Z,19.10
2019-05-30T08:35:39.211Z,18.80
2019-05-30T08:37:57.093Z,18.90
2019-05-30T08:40:26.558Z,18.80
2019-05-30T08:42:55.681Z,18.70
2019-05-30T08:45:26.961Z,18.70
2019-05-30T08:47:55.931Z,18.60
2019-05-30T08:50:25.095Z,18.60
2019-05-30T08:52:54.209Z,18.60
2019-05-30T08:55:23.443Z,18.60
2019-05-30T08:57:52.908Z,18.50
2019-05-30T09:00:23.369Z,18.50
2019-05-30T09:02:52.378Z,18.50
2019-05-30T09:05:22.013Z,18.50
2019-05-30T09:07:51.567Z,18.60
2019-05-30T09:10:20.760Z,18.60
2019-05-30T09:12:49.822Z,18.50
2019-05-30T09:15:21.836Z,18.50
2019-05-30T09:17:50.265Z,18.50
2019-05-30T09:20:19.714Z,18.50
2019-05-30T09:22:48.997Z,18.50
2019-05-30T09:25:18.954Z,18.50
2019-05-30T09:27:48.357Z,18.50
2019-05-30T09:30:18.141Z,18.50
2019-05-30T09:32:47.199Z,18.50
2019-05-30T09:35:16.669Z,18.50
2019-05-30T09:37:47.634Z,18.50
2019-05-30T09:40:17.744Z,18.60
2019-05-30T09:42:48.354Z,18.60
2019-05-30T09:45:19.544Z,18.50
2019-05-30T09:47:49.313Z,18.60
2019-05-30T09:50:19.222Z,18.60
2019-05-30T09:52:49.411Z,18.60
2019-05-30T09:55:20.967Z,18.70
2019-05-30T09:57:49.998Z,18.70
2019-05-30T10:00:19.974Z,18.70
2019-05-30T10:02:50.339Z,18.70
2019-05-30T10:05:24.170Z,18.80
2019-05-30T10:07:51.015Z,18.80
2019-05-30T10:10:20.224Z,18.80
2019-05-30T10:12:50.327Z,18.70
2019-05-30T10:15:20.338Z,18.70
2019-05-30T10:17:50.125Z,18.70
2019-05-30T10:20:20.339Z,18.70
2019-05-30T10:22:50.826Z,18.70
2019-05-30T10:25:20.378Z,18.80
2019-05-30T10:27:51.017Z,18.90
2019-05-30T10:30:22.111Z,18.90
2019-05-30T10:32:52.046Z,18.90
2019-05-30T10:35:21.249Z,18.90
2019-05-30T10:37:50.917Z,18.90
2019-05-30T10:40:20.224Z,18.90
2019-05-30T10:42:51.083Z,18.80
2019-05-30T10:45:20.635Z,18.90
2019-05-30T10:47:49.816Z,18.80
2019-05-30T10:50:20.132Z,18.90
2019-05-30T10:52:49.410Z,18.80
2019-05-30T10:55:19.461Z,18.90
2019-05-30T10:57:49.952Z,18.90
2019-05-30T11:00:19.589Z,18.90
2019-05-30T11:02:49.438Z,18.90
2019-05-30T11:05:19.885Z,19.00
2019-05-30T11:08:05.314Z,19.00
2019-05-30T11:10:38.651Z,19.00
2019-05-30T11:13:10.969Z,19.10
2019-05-30T11:15:40.210Z,19.20
2019-05-30T11:18:09.176Z,19.20
2019-05-30T11:20:38.590Z,19.40
2019-05-30T11:23:07.533Z,19.50
2019-05-30T11:25:36.721Z,19.50
2019-05-30T11:28:06.484Z,19.50
2019-05-30T11:30:35.543Z,19.50
2019-05-30T11:33:04.878Z,19.50
2019-05-30T11:35:34.001Z,19.50
2019-05-30T11:38:02.917Z,19.50
2019-05-30T11:40:31.708Z,19.50
2019-05-30T11:43:00.821Z,19.50
2019-05-30T11:45:29.737Z,19.40
2019-05-30T11:47:59.934Z,19.50
2019-05-30T11:50:29.264Z,19.50
2019-05-30T11:52:58.083Z,19.50
2019-05-30T11:55:27.068Z,19.60
2019-05-30T11:57:56.269Z,19.60
2019-05-30T12:00:25.609Z,19.70
2019-05-30T12:02:54.545Z,19.70
2019-05-30T12:05:23.960Z,19.70
2019-05-30T12:07:52.989Z,19.70
2019-05-30T12:10:23.799Z,19.70
2019-05-30T12:12:53.361Z,19.80
2019-05-30T12:15:22.436Z,19.80
2019-05-30T12:17:51.359Z,19.80
2019-05-30T12:20:20.578Z,19.80
2019-05-30T12:22:49.414Z,19.80
2019-05-30T12:25:18.601Z,19.80
2019-05-30T12:27:47.369Z,19.80
2019-05-30T12:30:16.721Z,19.70
2019-05-30T12:32:45.664Z,19.80
2019-05-30T12:35:16.226Z,19.70
2019-05-30T12:37:55.126Z,19.70
2019-05-30T12:40:16.933Z,19.80
2019-05-30T12:42:46.025Z,19.80
2019-05-30T12:45:15.623Z,19.80
2019-05-30T12:47:44.469Z,19.70
2019-05-30T12:50:16.692Z,19.70
2019-05-30T12:52:44.477Z,19.60
2019-05-30T12:55:14.230Z,19.60
2019-05-30T12:57:43.262Z,19.60
2019-05-30T13:00:18.156Z,19.60
2019-05-30T13:02:44.287Z,19.50
2019-05-30T13:05:13.394Z,19.60
2019-05-30T13:07:42.480Z,19.60
2019-05-30T13:10:11.685Z,19.60
2019-05-30T13:12:40.672Z,19.60
2019-05-30T13:15:10.772Z,19.60
2019-05-30T13:17:39.945Z,19.60
2019-05-30T13:20:10.894Z,19.60
2019-05-30T13:22:39.821Z,19.60
2019-05-30T13:25:09.834Z,19.60
2019-05-30T13:27:38.737Z,19.60
2019-05-30T13:30:08.589Z,19.60
2019-05-30T13:32:37.483Z,19.60
2019-05-30T13:35:07.989Z,19.60
2019-05-30T13:37:36.910Z,19.60
2019-05-30T13:40:19.886Z,19.60
2019-05-30T13:42:37.487Z,19.60
2019-05-30T13:45:06.697Z,19.60
2019-05-30T13:47:36.487Z,19.60
2019-05-30T13:50:09.802Z,19.60
2019-05-30T13:52:36.637Z,19.70
2019-05-30T13:55:07.999Z,19.70
2019-05-30T13:57:36.765Z,19.70
2019-05-30T14:00:06.214Z,19.70
2019-05-30T14:02:35.214Z,19.70
2019-05-30T14:05:06.080Z,19.80
2019-05-30T14:07:35.621Z,19.80
2019-05-30T14:10:06.336Z,19.80
2019-05-30T14:12:35.297Z,19.80
2019-05-30T14:15:07.234Z,19.80
2019-05-30T14:17:35.709Z,19.80
2019-05-30T14:20:05.190Z,19.70
2019-05-30T14:22:34.062Z,19.70
2019-05-30T14:25:03.408Z,19.60
2019-05-30T14:27:32.374Z,19.60
2019-05-30T14:30:02.899Z,19.70
2019-05-30T14:32:31.951Z,19.60
2019-05-30T14:35:02.256Z,19.70
2019-05-30T14:37:31.345Z,19.70
2019-05-30T14:40:00.307Z,19.70
2019-05-30T14:42:29.369Z,19.70
2019-05-30T14:44:58.458Z,19.70
2019-05-30T14:47:27.356Z,19.70
2019-05-30T14:49:56.175Z,19.80
2019-05-30T14:52:25.286Z,19.80
2019-05-30T14:54:54.434Z,19.80
2019-05-30T14:57:23.216Z,19.90
2019-05-30T14:59:52.026Z,19.90
2019-05-30T15:02:20.834Z,19.90
2019-05-30T15:04:49.874Z,19.90
2019-05-30T15:07:18.725Z,19.90
2019-05-30T15:09:47.757Z,19.90
2019-05-30T15:12:16.936Z,19.90
2019-05-30T15:14:46.004Z,19.90
2019-05-30T15:17:14.892Z,19.90
2019-05-30T15:19:43.961Z,19.90
2019-05-30T15:22:16.357Z,19.90
2019-05-30T15:24:43.269Z,19.90
2019-05-30T15:27:12.264Z,19.90
2019-05-30T15:29:41.045Z,19.90
2019-05-30T15:32:10.296Z,19.90
2019-05-30T15:34:39.619Z,19.90
2019-05-30T15:37:08.639Z,19.90
2019-05-30T15:39:37.777Z,19.90
2019-05-30T15:42:07.207Z,19.90
2019-05-30T15:44:36.077Z,19.90
2019-05-30T15:47:04.934Z,19.90
2019-05-30T15:49:33.942Z,19.90
2019-05-30T15:52:02.767Z,19.90
2019-05-30T15:54:31.654Z,20.00
2019-05-30T15:57:00.410Z,20.00
2019-05-30T15:59:29.202Z,20.00
2019-05-30T16:01:57.980Z,20.10
2019-05-30T16:04:26.766Z,20.10
2019-05-30T16:06:55.527Z,20.10
2019-05-30T16:09:24.851Z,20.10
2019-05-30T16:11:53.630Z,20.10
2019-05-30T16:14:22.419Z,20.10
2019-05-30T16:16:51.253Z,20.10
2019-05-30T16:19:25.970Z,20.00
2019-05-30T16:21:50.642Z,20.00
2019-05-30T16:24:19.749Z,20.00
2019-05-30T16:26:48.549Z,20.00
2019-05-30T16:29:18.422Z,20.00
2019-05-30T16:31:47.200Z,20.00
2019-05-30T16:34:16.199Z,20.00
2019-05-30T16:36:45.044Z,20.00
2019-05-30T16:39:14.030Z,20.00
2019-05-30T16:41:43.214Z,20.00
2019-05-30T16:44:12.354Z,20.00
2019-05-30T16:46:41.238Z,20.00
2019-05-30T16:49:10.106Z,19.90
2019-05-30T16:51:38.964Z,19.90
2019-05-30T16:54:08.102Z,20.00
2019-05-30T16:56:37.361Z,20.00
2019-05-30T16:59:06.158Z,20.00
2019-05-30T17:01:35.053Z,19.90
2019-05-30T17:04:04.241Z,19.90
2019-05-30T17:06:33.043Z,20.00
2019-05-30T17:09:02.010Z,20.00
2019-05-30T17:11:30.874Z,20.00
2019-05-30T17:13:59.908Z,20.00
2019-05-30T17:16:28.853Z,20.00
2019-05-30T17:18:57.692Z,20.00
2019-05-30T17:21:26.780Z,19.90
2019-05-30T17:23:55.745Z,19.90
2019-05-30T17:26:25.368Z,19.90
2019-05-30T17:28:54.209Z,19.90
2019-05-30T17:31:23.942Z,19.90
2019-05-30T17:33:53.105Z,20.00
2019-05-30T17:36:22.157Z,19.90
2019-05-30T17:38:50.977Z,19.90
2019-05-30T17:41:20.582Z,19.90
2019-05-30T17:43:49.373Z,19.90
2019-05-30T17:46:19.255Z,19.90
2019-05-30T17:48:48.210Z,19.90
2019-05-30T17:51:17.302Z,19.90
2019-05-30T17:53:46.065Z,19.90
2019-05-30T17:56:17.697Z,19.90
2019-05-30T17:58:46.556Z,19.90
2019-05-30T18:01:15.373Z,19.90
2019-05-30T18:03:44.421Z,19.90
2019-05-30T18:06:13.207Z,19.90
2019-05-30T18:08:42.011Z,19.80
2019-05-30T18:11:11.032Z,19.80
2019-05-30T18:13:39.827Z,19.80
2019-05-30T18:16:08.936Z,19.80
2019-05-30T18:18:37.737Z,19.80
2019-05-30T18:21:07.006Z,19.80
2019-05-30T18:23:35.769Z,19.80
2019-05-30T18:26:04.869Z,19.80
2019-05-30T18:28:33.993Z,19.80
2019-05-30T18:31:03.012Z,19.80
2019-05-30T18:33:32.547Z,19.80
2019-05-30T18:36:01.865Z,19.70
2019-05-30T18:38:30.906Z,19.70
2019-05-30T18:41:10.772Z,19.70
2019-05-30T18:43:30.930Z,19.70
2019-05-30T18:46:00.023Z,19.70
2019-05-30T18:48:29.272Z,19.70
2019-05-30T18:50:58.153Z,19.70
2019-05-30T18:53:28.238Z,19.60
2019-05-30T18:55:57.258Z,19.60
2019-05-30T18:58:26.771Z,19.60
2019-05-30T19:00:55.923Z,19.60
2019-05-30T19:03:24.722Z,19.60
2019-05-30T19:05:53.916Z,19.50
2019-05-30T19:08:22.676Z,19.50
2019-05-30T19:10:51.475Z,19.50
2019-05-30T19:13:20.266Z,19.50
2019-05-30T19:15:49.503Z,19.40
2019-05-30T19:18:18.371Z,19.40
2019-05-30T19:20:47.164Z,19.40
2019-05-30T19:23:15.949Z,19.30
2019-05-30T19:25:45.025Z,19.30
2019-05-30T19:28:14.090Z,19.30
2019-05-30T19:30:42.969Z,19.30
2019-05-30T19:33:11.812Z,19.30
2019-05-30T19:35:40.657Z,19.30
2019-05-30T19:38:09.528Z,19.20
2019-05-30T19:40:38.389Z,19.20
2019-05-30T19:43:07.637Z,19.20
2019-05-30T19:45:36.497Z,19.20
2019-05-30T19:48:05.420Z,19.20
2019-05-30T19:50:34.704Z,19.20
2019-05-30T19:53:03.566Z,19.10
2019-05-30T19:55:33.239Z,19.10
2019-05-30T19:58:02.112Z,19.10
2019-05-30T20:00:31.986Z,19.00
2019-05-30T20:03:01.038Z,19.00
2019-05-30T20:05:30.478Z,18.90
2019-05-30T20:07:59.453Z,18.90
2019-05-30T20:10:28.349Z,18.90
2019-05-30T20:12:57.129Z,18.90
2019-05-30T20:15:26.255Z,18.90
2019-05-30T20:17:55.111Z,18.90
2019-05-30T20:20:23.975Z,18.90
2019-05-30T20:22:52.834Z,18.80
2019-05-30T20:25:21.863Z,18.80
2019-05-30T20:27:51.035Z,18.80
2019-05-30T20:30:20.525Z,18.80
2019-05-30T20:32:49.316Z,18.80
2019-05-30T20:35:18.264Z,18.70
2019-05-30T20:37:47.125Z,18.70
2019-05-30T20:40:16.859Z,18.70
2019-05-30T20:42:45.650Z,18.70
2019-05-30T20:45:15.646Z,18.70
2019-05-30T20:47:44.604Z,18.70
2019-05-30T20:50:15.180Z,18.70
2019-05-30T20:52:45.715Z,18.70
2019-05-30T20:55:15.545Z,18.70
2019-05-30T20:57:44.312Z,18.70
2019-05-30T21:00:15.459Z,18.60
2019-05-30T21:02:44.285Z,18.60
2019-05-30T21:05:14.785Z,18.50
2019-05-30T21:07:44.246Z,18.50
2019-05-30T21:10:14.214Z,18.40
2019-05-30T21:12:46.994Z,18.40
2019-05-30T21:15:15.135Z,18.40
2019-05-30T21:17:46.213Z,18.40
2019-05-30T21:20:16.026Z,18.40
2019-05-30T21:22:44.898Z,18.40
2019-05-30T21:25:14.035Z,18.40
2019-05-30T21:27:43.145Z,18.30
2019-05-30T21:30:12.208Z,18.30
2019-05-30T21:32:42.100Z,18.30
2019-05-30T21:35:14.024Z,18.30
2019-05-30T21:37:43.751Z,18.40
2019-05-30T21:40:13.738Z,18.30
2019-05-30T21:42:58.125Z,18.30
2019-05-30T21:45:13.734Z,18.10
2019-05-30T21:47:42.795Z,18.10
2019-05-30T21:50:12.070Z,18.10
2019-05-30T21:52:41.485Z,18.10
2019-05-30T21:55:10.622Z,18.20
2019-05-30T21:57:39.804Z,18.10
2019-05-30T22:00:11.771Z,18.10
2019-05-30T22:02:42.980Z,18.00
2019-05-30T22:05:12.002Z,18.00
2019-05-30T22:07:40.981Z,18.00
2019-05-30T22:10:10.083Z,18.00
2019-05-30T22:12:39.105Z,18.00
2019-05-30T22:15:08.045Z,17.90
2019-05-30T22:17:36.816Z,17.90
2019-05-30T22:20:06.020Z,17.90
2019-05-30T22:22:35.056Z,17.80
2019-05-30T22:25:04.369Z,17.90
2019-05-30T22:27:33.145Z,17.90
2019-05-30T22:30:01.961Z,17.80
2019-05-30T22:32:30.777Z,17.90
2019-05-30T22:34:59.601Z,17.70
2019-05-30T22:37:28.402Z,17.70
2019-05-30T22:39:57.196Z,17.60
2019-05-30T22:42:26.300Z,17.60
2019-05-30T22:44:55.086Z,17.60
2019-05-30T22:47:23.935Z,17.60
2019-05-30T22:49:53.003Z,17.60
2019-05-30T22:52:21.920Z,17.60
2019-05-30T22:54:51.229Z,17.60
2019-05-30T22:57:20.226Z,17.70
2019-05-30T22:59:49.078Z,17.80
2019-05-30T23:02:17.868Z,17.70
2019-05-30T23:04:48.095Z,17.70
2019-05-30T23:07:17.132Z,17.70
2019-05-30T23:09:45.924Z,17.60
2019-05-30T23:12:14.706Z,17.60
2019-05-30T23:14:43.471Z,17.50
2019-05-30T23:17:12.294Z,17.50
2019-05-30T23:19:41.399Z,17.50
2019-05-30T23:22:10.424Z,17.50
2019-05-30T23:24:39.474Z,17.50
2019-05-30T23:27:08.474Z,17.60
2019-05-30T23:29:37.265Z,17.60
2019-05-30T23:32:06.157Z,17.60
2019-05-30T23:34:35.257Z,17.70
2019-05-30T23:37:04.196Z,17.70
2019-05-30T23:39:33.256Z,17.70
2019-05-30T23:42:02.050Z,17.80
2019-05-30T23:44:30.833Z,17.80
2019-05-30T23:46:59.805Z,17.70
2019-05-30T23:49:28.646Z,17.60
2019-05-30T23:51:58.425Z,17.60
2019-05-30T23:54:27.428Z,17.60
2019-05-30T23:56:56.479Z,17.60
2019-05-30T23:59:26.018Z,17.60
